sensor_id;sensor_type;location;lat;lon;timestamp;temperature;humidity
40153;DHT22;26371;56.992;23.912;2023-11-21T00:01:34;-2.80;99.90
40153;DHT22;26371;56.992;23.912;2023-11-21T00:04:03;-2.90;99.90
40153;DHT22;26371;56.992;23.912;2023-11-21T00:06:34;-2.90;99.90
40153;DHT22;26371;56.992;23.912;2023-11-21T00:09:05;-2.80;99.90
40153;DHT22;26371;56.992;23.912;2023-11-21T00:11:35;-2.80;99.90
40153;DHT22;26371;56.992;23.912;2023-11-21T00:14:05;-2.80;99.90
40153;DHT22;26371;56.992;23.912;2023-11-21T00:16:35;-2.70;99.90
40153;DHT22;26371;56.992;23.912;2023-11-21T00:19:04;-2.70;99.90
40153;DHT22;26371;56.992;23.912;2023-11-21T00:21:33;-2.70;99.90
40153;DHT22;26371;56.992;23.912;2023-11-21T00:24:01;-2.60;99.90
40153;DHT22;26371;56.992;23.912;2023-11-21T00:26:32;-2.60;99.90
40153;DHT22;26371;56.992;23.912;2023-11-21T00:29:04;-2.50;99.90
40153;DHT22;26371;56.992;23.912;2023-11-21T00:31:35;-2.50;99.90
40153;DHT22;26371;56.992;23.912;2023-11-21T00:34:05;-2.50;99.90
40153;DHT22;26371;56.992;23.912;2023-11-21T00:36:34;-2.50;99.90
40153;DHT22;26371;56.992;23.912;2023-11-21T00:39:03;-2.50;99.90
40153;DHT22;26371;56.992;23.912;2023-11-21T00:41:35;-2.60;99.90
40153;DHT22;26371;56.992;23.912;2023-11-21T00:44:05;-2.60;99.90
40153;DHT22;26371;56.992;23.912;2023-11-21T00:46:34;-2.70;99.90
40153;DHT22;26371;56.992;23.912;2023-11-21T00:49:03;-2.70;99.90
40153;DHT22;26371;56.992;23.912;2023-11-21T00:51:31;-2.70;99.90
40153;DHT22;26371;56.992;23.912;2023-11-21T00:54:01;-2.80;99.90
40153;DHT22;26371;56.992;23.912;2023-11-21T00:56:29;-2.80;99.90
40153;DHT22;26371;56.992;23.912;2023-11-21T00:59:00;-2.80;99.90
40153;DHT22;26371;56.992;23.912;2023-11-21T01:01:32;-2.80;99.90
40153;DHT22;26371;56.992;23.912;2023-11-21T01:04:00;-2.80;99.90
40153;DHT22;26371;56.992;23.912;2023-11-21T01:06:30;-2.80;99.90
40153;DHT22;26371;56.992;23.912;2023-11-21T01:08:58;-2.80;99.90
40153;DHT22;26371;56.992;23.912;2023-11-21T01:11:27;-2.80;99.90
40153;DHT22;26371;56.992;23.912;2023-11-21T01:13:56;-2.90;99.90
40153;DHT22;26371;56.992;23.912;2023-11-21T01:16:26;-2.90;99.90
40153;DHT22;26371;56.992;23.912;2023-11-21T01:18:56;-3.00;99.90
40153;DHT22;26371;56.992;23.912;2023-11-21T01:21:24;-3.00;99.90
40153;DHT22;26371;56.992;23.912;2023-11-21T01:23:53;-3.00;99.90
40153;DHT22;26371;56.992;23.912;2023-11-21T01:26:22;-3.10;99.90
40153;DHT22;26371;56.992;23.912;2023-11-21T01:28:51;-3.10;99.90
40153;DHT22;26371;56.992;23.912;2023-11-21T01:31:20;-3.10;99.90
40153;DHT22;26371;56.992;23.912;2023-11-21T01:33:50;-3.10;99.90
40153;DHT22;26371;56.992;23.912;2023-11-21T01:36:19;-3.10;99.90
40153;DHT22;26371;56.992;23.912;2023-11-21T01:38:48;-3.10;99.90
40153;DHT22;26371;56.992;23.912;2023-11-21T01:41:17;-3.10;99.90
40153;DHT22;26371;56.992;23.912;2023-11-21T01:43:47;-3.10;99.90
40153;DHT22;26371;56.992;23.912;2023-11-21T01:46:16;-3.20;99.90
40153;DHT22;26371;56.992;23.912;2023-11-21T01:48:45;-3.30;99.90
40153;DHT22;26371;56.992;23.912;2023-11-21T01:51:17;-3.30;99.90
40153;DHT22;26371;56.992;23.912;2023-11-21T01:53:46;-3.40;99.90
40153;DHT22;26371;56.992;23.912;2023-11-21T01:56:16;-3.50;99.90
40153;DHT22;26371;56.992;23.912;2023-11-21T01:58:46;-3.50;99.90
40153;DHT22;26371;56.992;23.912;2023-11-21T02:01:15;-3.40;99.90
40153;DHT22;26371;56.992;23.912;2023-11-21T02:03:46;-3.40;99.90
40153;DHT22;26371;56.992;23.912;2023-11-21T02:06:16;-3.20;99.90
40153;DHT22;26371;56.992;23.912;2023-11-21T02:08:45;-3.40;99.90
40153;DHT22;26371;56.992;23.912;2023-11-21T02:11:14;-3.40;99.90
40153;DHT22;26371;56.992;23.912;2023-11-21T02:13:43;-3.30;99.90
40153;DHT22;26371;56.992;23.912;2023-11-21T02:16:13;-3.30;99.90
40153;DHT22;26371;56.992;23.912;2023-11-21T02:18:42;-3.20;99.90
40153;DHT22;26371;56.992;23.912;2023-11-21T02:21:11;-3.20;99.90
40153;DHT22;26371;56.992;23.912;2023-11-21T02:23:41;-3.10;99.90
40153;DHT22;26371;56.992;23.912;2023-11-21T02:26:12;-3.10;99.90
40153;DHT22;26371;56.992;23.912;2023-11-21T02:28:41;-3.10;99.90
40153;DHT22;26371;56.992;23.912;2023-11-21T02:31:10;-3.10;99.90
40153;DHT22;26371;56.992;23.912;2023-11-21T02:33:39;-3.10;99.90
40153;DHT22;26371;56.992;23.912;2023-11-21T02:36:09;-3.10;99.90
40153;DHT22;26371;56.992;23.912;2023-11-21T02:38:40;-3.20;99.90
40153;DHT22;26371;56.992;23.912;2023-11-21T02:41:09;-3.20;99.90
40153;DHT22;26371;56.992;23.912;2023-11-21T02:43:38;-3.20;99.90
40153;DHT22;26371;56.992;23.912;2023-11-21T02:46:08;-3.20;99.90
40153;DHT22;26371;56.992;23.912;2023-11-21T02:48:39;-3.30;99.90
40153;DHT22;26371;56.992;23.912;2023-11-21T02:51:08;-3.30;99.90
40153;DHT22;26371;56.992;23.912;2023-11-21T02:53:36;-3.30;99.90
40153;DHT22;26371;56.992;23.912;2023-11-21T02:56:09;-3.30;99.90
40153;DHT22;26371;56.992;23.912;2023-11-21T02:58:37;-3.30;99.90
40153;DHT22;26371;56.992;23.912;2023-11-21T03:01:06;-3.30;99.90
40153;DHT22;26371;56.992;23.912;2023-11-21T03:03:35;-3.20;99.90
40153;DHT22;26371;56.992;23.912;2023-11-21T03:06:07;-3.20;99.90
40153;DHT22;26371;56.992;23.912;2023-11-21T03:08:36;-3.20;99.90
40153;DHT22;26371;56.992;23.912;2023-11-21T03:11:05;-3.20;99.90
40153;DHT22;26371;56.992;23.912;2023-11-21T03:13:35;-3.20;99.90
40153;DHT22;26371;56.992;23.912;2023-11-21T03:16:05;-3.10;99.90
40153;DHT22;26371;56.992;23.912;2023-11-21T03:18:34;-3.00;99.90
40153;DHT22;26371;56.992;23.912;2023-11-21T03:21:03;-2.90;99.90
40153;DHT22;26371;56.992;23.912;2023-11-21T03:23:32;-2.90;99.90
40153;DHT22;26371;56.992;23.912;2023-11-21T03:26:03;-2.90;99.90
40153;DHT22;26371;56.992;23.912;2023-11-21T03:28:31;-2.80;99.90
40153;DHT22;26371;56.992;23.912;2023-11-21T03:31:02;-2.80;99.90
40153;DHT22;26371;56.992;23.912;2023-11-21T03:33:30;-2.80;99.90
40153;DHT22;26371;56.992;23.912;2023-11-21T03:35:59;-2.70;99.90
40153;DHT22;26371;56.992;23.912;2023-11-21T03:38:28;-2.70;99.90
40153;DHT22;26371;56.992;23.912;2023-11-21T03:40:56;-2.60;99.90
40153;DHT22;26371;56.992;23.912;2023-11-21T03:43:28;-2.70;99.90
40153;DHT22;26371;56.992;23.912;2023-11-21T03:45:57;-2.60;99.90
40153;DHT22;26371;56.992;23.912;2023-11-21T03:48:27;-2.60;99.90
40153;DHT22;26371;56.992;23.912;2023-11-21T03:50:56;-2.60;99.90
40153;DHT22;26371;56.992;23.912;2023-11-21T03:53:24;-2.50;99.90
40153;DHT22;26371;56.992;23.912;2023-11-21T03:55:53;-2.50;99.90
40153;DHT22;26371;56.992;23.912;2023-11-21T03:58:22;-2.50;99.90
40153;DHT22;26371;56.992;23.912;2023-11-21T04:00:51;-2.40;99.90
40153;DHT22;26371;56.992;23.912;2023-11-21T04:03:20;-2.50;99.90
40153;DHT22;26371;56.992;23.912;2023-11-21T04:05:50;-2.50;99.90
40153;DHT22;26371;56.992;23.912;2023-11-21T04:08:18;-2.50;99.90
40153;DHT22;26371;56.992;23.912;2023-11-21T04:10:47;-2.50;99.90
40153;DHT22;26371;56.992;23.912;2023-11-21T04:13:16;-2.50;99.90
40153;DHT22;26371;56.992;23.912;2023-11-21T04:15:44;-2.50;99.90
40153;DHT22;26371;56.992;23.912;2023-11-21T04:18:13;-2.50;99.90
40153;DHT22;26371;56.992;23.912;2023-11-21T04:20:42;-2.50;99.90
40153;DHT22;26371;56.992;23.912;2023-11-21T04:23:12;-2.50;99.90
40153;DHT22;26371;56.992;23.912;2023-11-21T04:25:41;-2.50;99.90
40153;DHT22;26371;56.992;23.912;2023-11-21T04:28:09;-2.50;99.90
40153;DHT22;26371;56.992;23.912;2023-11-21T04:30:38;-2.50;99.90
40153;DHT22;26371;56.992;23.912;2023-11-21T04:33:08;-2.40;99.90
40153;DHT22;26371;56.992;23.912;2023-11-21T04:35:36;-2.40;99.90
40153;DHT22;26371;56.992;23.912;2023-11-21T04:38:05;-2.40;99.90
40153;DHT22;26371;56.992;23.912;2023-11-21T04:40:35;-2.50;99.90
40153;DHT22;26371;56.992;23.912;2023-11-21T04:43:04;-2.50;99.90
40153;DHT22;26371;56.992;23.912;2023-11-21T04:45:33;-2.50;99.90
40153;DHT22;26371;56.992;23.912;2023-11-21T04:48:02;-2.50;99.90
40153;DHT22;26371;56.992;23.912;2023-11-21T04:50:31;-2.50;99.90
40153;DHT22;26371;56.992;23.912;2023-11-21T04:52:59;-2.50;99.90
40153;DHT22;26371;56.992;23.912;2023-11-21T04:55:28;-2.50;99.90
40153;DHT22;26371;56.992;23.912;2023-11-21T04:57:58;-2.50;99.90
40153;DHT22;26371;56.992;23.912;2023-11-21T05:00:27;-2.50;99.90
40153;DHT22;26371;56.992;23.912;2023-11-21T05:02:56;-2.50;99.90
40153;DHT22;26371;56.992;23.912;2023-11-21T05:05:25;-2.40;99.90
40153;DHT22;26371;56.992;23.912;2023-11-21T05:07:53;-2.40;99.90
40153;DHT22;26371;56.992;23.912;2023-11-21T05:10:22;-2.40;99.90
40153;DHT22;26371;56.992;23.912;2023-11-21T05:12:51;-2.40;99.90
40153;DHT22;26371;56.992;23.912;2023-11-21T05:15:21;-2.30;99.90
40153;DHT22;26371;56.992;23.912;2023-11-21T05:17:50;-2.30;99.90
40153;DHT22;26371;56.992;23.912;2023-11-21T05:20:20;-2.30;99.90
40153;DHT22;26371;56.992;23.912;2023-11-21T05:22:49;-2.30;99.90
40153;DHT22;26371;56.992;23.912;2023-11-21T05:25:18;-2.30;99.90
40153;DHT22;26371;56.992;23.912;2023-11-21T05:27:47;-2.30;99.90
40153;DHT22;26371;56.992;23.912;2023-11-21T05:30:16;-2.40;99.90
40153;DHT22;26371;56.992;23.912;2023-11-21T05:32:46;-2.40;99.90
40153;DHT22;26371;56.992;23.912;2023-11-21T05:35:17;-2.40;99.90
40153;DHT22;26371;56.992;23.912;2023-11-21T05:37:46;-2.40;99.90
40153;DHT22;26371;56.992;23.912;2023-11-21T05:40:15;-2.40;99.90
40153;DHT22;26371;56.992;23.912;2023-11-21T05:42:44;-2.40;99.90
40153;DHT22;26371;56.992;23.912;2023-11-21T05:45:13;-2.30;99.90
40153;DHT22;26371;56.992;23.912;2023-11-21T05:47:44;-2.40;99.90
40153;DHT22;26371;56.992;23.912;2023-11-21T05:50:16;-2.30;99.90
40153;DHT22;26371;56.992;23.912;2023-11-21T05:52:47;-2.30;99.90
40153;DHT22;26371;56.992;23.912;2023-11-21T05:55:16;-2.30;99.90
40153;DHT22;26371;56.992;23.912;2023-11-21T05:57:45;-2.30;99.90
40153;DHT22;26371;56.992;23.912;2023-11-21T06:00:14;-2.40;99.90
40153;DHT22;26371;56.992;23.912;2023-11-21T06:02:48;-2.40;99.90
40153;DHT22;26371;56.992;23.912;2023-11-21T06:05:24;-2.30;99.90
40153;DHT22;26371;56.992;23.912;2023-11-21T06:07:54;-2.40;99.90
40153;DHT22;26371;56.992;23.912;2023-11-21T06:10:23;-2.30;99.90
40153;DHT22;26371;56.992;23.912;2023-11-21T06:12:53;-2.30;99.90
40153;DHT22;26371;56.992;23.912;2023-11-21T06:15:22;-2.30;99.90
40153;DHT22;26371;56.992;23.912;2023-11-21T06:17:51;-2.30;99.90
40153;DHT22;26371;56.992;23.912;2023-11-21T06:20:22;-2.30;99.90
40153;DHT22;26371;56.992;23.912;2023-11-21T06:22:51;-2.30;99.90
40153;DHT22;26371;56.992;23.912;2023-11-21T06:25:20;-2.30;99.90
40153;DHT22;26371;56.992;23.912;2023-11-21T06:27:50;-2.30;99.90
40153;DHT22;26371;56.992;23.912;2023-11-21T06:30:21;-2.30;99.90
40153;DHT22;26371;56.992;23.912;2023-11-21T06:32:51;-2.30;99.90
40153;DHT22;26371;56.992;23.912;2023-11-21T06:35:22;-2.30;99.90
40153;DHT22;26371;56.992;23.912;2023-11-21T06:37:51;-2.20;99.90
40153;DHT22;26371;56.992;23.912;2023-11-21T06:40:20;-2.30;99.90
40153;DHT22;26371;56.992;23.912;2023-11-21T06:42:49;-2.30;99.90
40153;DHT22;26371;56.992;23.912;2023-11-21T06:45:18;-2.30;99.90
40153;DHT22;26371;56.992;23.912;2023-11-21T06:47:47;-2.30;99.90
40153;DHT22;26371;56.992;23.912;2023-11-21T06:50:17;-2.30;99.90
40153;DHT22;26371;56.992;23.912;2023-11-21T06:52:47;-2.30;99.90
40153;DHT22;26371;56.992;23.912;2023-11-21T06:55:17;-2.20;99.90
40153;DHT22;26371;56.992;23.912;2023-11-21T06:57:45;-2.20;99.90
40153;DHT22;26371;56.992;23.912;2023-11-21T07:00:16;-2.20;99.90
40153;DHT22;26371;56.992;23.912;2023-11-21T07:02:46;-2.20;99.90
40153;DHT22;26371;56.992;23.912;2023-11-21T07:05:15;-2.20;99.90
40153;DHT22;26371;56.992;23.912;2023-11-21T07:07:50;-2.20;99.90
40153;DHT22;26371;56.992;23.912;2023-11-21T07:10:20;-2.10;99.90
40153;DHT22;26371;56.992;23.912;2023-11-21T07:12:48;-2.10;99.90
40153;DHT22;26371;56.992;23.912;2023-11-21T07:15:18;-2.10;99.90
40153;DHT22;26371;56.992;23.912;2023-11-21T07:17:49;-2.10;99.90
40153;DHT22;26371;56.992;23.912;2023-11-21T07:20:18;-2.10;99.90
40153;DHT22;26371;56.992;23.912;2023-11-21T07:22:48;-2.00;99.90
40153;DHT22;26371;56.992;23.912;2023-11-21T07:25:17;-2.00;99.90
40153;DHT22;26371;56.992;23.912;2023-11-21T07:27:46;-2.00;99.90
40153;DHT22;26371;56.992;23.912;2023-11-21T07:30:15;-2.00;99.90
40153;DHT22;26371;56.992;23.912;2023-11-21T07:32:45;-2.00;99.90
40153;DHT22;26371;56.992;23.912;2023-11-21T07:35:15;-1.90;99.90
40153;DHT22;26371;56.992;23.912;2023-11-21T07:37:44;-1.90;99.90
40153;DHT22;26371;56.992;23.912;2023-11-21T07:40:16;-1.90;99.90
40153;DHT22;26371;56.992;23.912;2023-11-21T07:42:45;-1.90;99.90
40153;DHT22;26371;56.992;23.912;2023-11-21T07:45:14;-1.90;99.90
40153;DHT22;26371;56.992;23.912;2023-11-21T07:47:44;-1.90;99.90
40153;DHT22;26371;56.992;23.912;2023-11-21T07:50:13;-1.90;99.90
40153;DHT22;26371;56.992;23.912;2023-11-21T07:52:42;-2.00;99.90
40153;DHT22;26371;56.992;23.912;2023-11-21T07:55:10;-1.90;99.90
40153;DHT22;26371;56.992;23.912;2023-11-21T07:57:41;-1.90;99.90
40153;DHT22;26371;56.992;23.912;2023-11-21T08:00:11;-1.90;99.90
40153;DHT22;26371;56.992;23.912;2023-11-21T08:02:40;-1.90;99.90
40153;DHT22;26371;56.992;23.912;2023-11-21T08:05:10;-1.80;99.90
40153;DHT22;26371;56.992;23.912;2023-11-21T08:07:51;-1.80;99.90
40153;DHT22;26371;56.992;23.912;2023-11-21T08:10:20;-1.80;99.90
40153;DHT22;26371;56.992;23.912;2023-11-21T08:12:50;-1.90;99.90
40153;DHT22;26371;56.992;23.912;2023-11-21T08:15:20;-1.80;99.90
40153;DHT22;26371;56.992;23.912;2023-11-21T08:17:49;-1.80;99.90
40153;DHT22;26371;56.992;23.912;2023-11-21T08:20:18;-1.80;99.90
40153;DHT22;26371;56.992;23.912;2023-11-21T08:22:47;-1.70;99.90
40153;DHT22;26371;56.992;23.912;2023-11-21T08:25:16;-1.70;99.90
40153;DHT22;26371;56.992;23.912;2023-11-21T08:27:47;-1.70;99.90
40153;DHT22;26371;56.992;23.912;2023-11-21T08:30:18;-1.60;99.90
40153;DHT22;26371;56.992;23.912;2023-11-21T08:32:49;-1.60;99.90
40153;DHT22;26371;56.992;23.912;2023-11-21T08:35:21;-1.60;99.90
40153;DHT22;26371;56.992;23.912;2023-11-21T08:37:51;-1.50;99.90
40153;DHT22;26371;56.992;23.912;2023-11-21T08:40:21;-1.50;99.90
40153;DHT22;26371;56.992;23.912;2023-11-21T08:42:51;-1.60;99.90
40153;DHT22;26371;56.992;23.912;2023-11-21T08:45:21;-1.60;99.90
40153;DHT22;26371;56.992;23.912;2023-11-21T08:47:50;-1.60;99.90
40153;DHT22;26371;56.992;23.912;2023-11-21T08:50:19;-1.50;99.90
40153;DHT22;26371;56.992;23.912;2023-11-21T08:52:48;-1.50;99.90
40153;DHT22;26371;56.992;23.912;2023-11-21T08:55:18;-1.50;99.90
40153;DHT22;26371;56.992;23.912;2023-11-21T08:57:47;-1.50;99.90
40153;DHT22;26371;56.992;23.912;2023-11-21T09:00:17;-1.50;99.90
40153;DHT22;26371;56.992;23.912;2023-11-21T09:02:47;-1.50;99.90
40153;DHT22;26371;56.992;23.912;2023-11-21T09:05:16;-1.50;99.90
40153;DHT22;26371;56.992;23.912;2023-11-21T09:07:46;-1.40;99.90
40153;DHT22;26371;56.992;23.912;2023-11-21T09:10:16;-1.40;99.90
40153;DHT22;26371;56.992;23.912;2023-11-21T09:12:44;-1.40;99.90
40153;DHT22;26371;56.992;23.912;2023-11-21T09:15:13;-1.30;99.90
40153;DHT22;26371;56.992;23.912;2023-11-21T09:17:42;-1.30;99.90
40153;DHT22;26371;56.992;23.912;2023-11-21T09:20:14;-1.30;99.90
40153;DHT22;26371;56.992;23.912;2023-11-21T09:22:43;-1.30;99.90
40153;DHT22;26371;56.992;23.912;2023-11-21T09:25:13;-1.20;99.90
40153;DHT22;26371;56.992;23.912;2023-11-21T09:27:42;-1.20;99.90
40153;DHT22;26371;56.992;23.912;2023-11-21T09:30:13;-1.20;99.90
40153;DHT22;26371;56.992;23.912;2023-11-21T09:32:42;-1.10;99.90
40153;DHT22;26371;56.992;23.912;2023-11-21T09:35:14;-1.10;99.90
40153;DHT22;26371;56.992;23.912;2023-11-21T09:37:44;-1.10;99.90
40153;DHT22;26371;56.992;23.912;2023-11-21T09:40:21;-1.10;99.90
40153;DHT22;26371;56.992;23.912;2023-11-21T09:42:54;-1.10;99.90
40153;DHT22;26371;56.992;23.912;2023-11-21T09:45:28;-1.10;99.90
40153;DHT22;26371;56.992;23.912;2023-11-21T09:47:58;-1.10;99.90
40153;DHT22;26371;56.992;23.912;2023-11-21T09:50:29;-1.00;99.90
40153;DHT22;26371;56.992;23.912;2023-11-21T09:53:09;-1.10;99.90
40153;DHT22;26371;56.992;23.912;2023-11-21T09:55:44;-1.10;99.90
40153;DHT22;26371;56.992;23.912;2023-11-21T09:58:14;-1.10;99.90
40153;DHT22;26371;56.992;23.912;2023-11-21T10:00:47;-1.10;99.90
40153;DHT22;26371;56.992;23.912;2023-11-21T10:03:16;-1.00;99.90
40153;DHT22;26371;56.992;23.912;2023-11-21T10:05:48;-1.00;99.90
40153;DHT22;26371;56.992;23.912;2023-11-21T10:08:20;-1.00;99.90
40153;DHT22;26371;56.992;23.912;2023-11-21T10:10:53;-1.00;99.90
40153;DHT22;26371;56.992;23.912;2023-11-21T10:13:22;-1.00;99.90
40153;DHT22;26371;56.992;23.912;2023-11-21T10:15:52;-1.10;99.90
40153;DHT22;26371;56.992;23.912;2023-11-21T10:18:20;-1.10;99.90
40153;DHT22;26371;56.992;23.912;2023-11-21T10:20:54;-1.10;99.90
40153;DHT22;26371;56.992;23.912;2023-11-21T10:23:24;-1.10;99.90
40153;DHT22;26371;56.992;23.912;2023-11-21T10:25:53;-1.10;99.90
40153;DHT22;26371;56.992;23.912;2023-11-21T10:28:24;-1.10;99.90
40153;DHT22;26371;56.992;23.912;2023-11-21T10:30:53;-1.10;99.90
40153;DHT22;26371;56.992;23.912;2023-11-21T10:33:27;-1.10;99.90
40153;DHT22;26371;56.992;23.912;2023-11-21T10:35:58;-1.10;99.90
40153;DHT22;26371;56.992;23.912;2023-11-21T10:38:28;-1.00;99.90
40153;DHT22;26371;56.992;23.912;2023-11-21T10:41:05;-1.00;99.90
40153;DHT22;26371;56.992;23.912;2023-11-21T10:43:38;-1.00;99.90
40153;DHT22;26371;56.992;23.912;2023-11-21T10:46:08;-1.00;99.90
40153;DHT22;26371;56.992;23.912;2023-11-21T10:48:36;-1.10;99.90
40153;DHT22;26371;56.992;23.912;2023-11-21T10:51:08;-1.10;99.90
40153;DHT22;26371;56.992;23.912;2023-11-21T10:53:39;-1.00;99.90
40153;DHT22;26371;56.992;23.912;2023-11-21T10:56:14;-1.00;99.90
40153;DHT22;26371;56.992;23.912;2023-11-21T10:58:45;-1.00;99.90
40153;DHT22;26371;56.992;23.912;2023-11-21T11:01:14;-1.00;99.90
40153;DHT22;26371;56.992;23.912;2023-11-21T11:03:47;-1.00;99.90
40153;DHT22;26371;56.992;23.912;2023-11-21T11:06:17;-1.00;99.90
40153;DHT22;26371;56.992;23.912;2023-11-21T11:08:47;-0.90;99.90
40153;DHT22;26371;56.992;23.912;2023-11-21T11:11:16;-1.00;99.90
40153;DHT22;26371;56.992;23.912;2023-11-21T11:13:45;-1.00;99.90
40153;DHT22;26371;56.992;23.912;2023-11-21T11:16:15;-1.10;99.90
40153;DHT22;26371;56.992;23.912;2023-11-21T11:18:45;-1.00;99.90
40153;DHT22;26371;56.992;23.912;2023-11-21T11:21:28;-1.00;99.90
40153;DHT22;26371;56.992;23.912;2023-11-21T11:24:11;-1.00;99.90
40153;DHT22;26371;56.992;23.912;2023-11-21T11:26:47;-1.00;99.90
40153;DHT22;26371;56.992;23.912;2023-11-21T11:29:26;-1.10;99.90
40153;DHT22;26371;56.992;23.912;2023-11-21T11:32:06;-1.10;99.90
40153;DHT22;26371;56.992;23.912;2023-11-21T11:34:44;-1.10;99.90
40153;DHT22;26371;56.992;23.912;2023-11-21T11:37:16;-1.00;99.90
40153;DHT22;26371;56.992;23.912;2023-11-21T11:39:46;-1.00;99.90
40153;DHT22;26371;56.992;23.912;2023-11-21T11:42:16;-1.00;99.90
40153;DHT22;26371;56.992;23.912;2023-11-21T11:44:53;-1.00;99.90
40153;DHT22;26371;56.992;23.912;2023-11-21T11:47:24;-0.90;99.90
40153;DHT22;26371;56.992;23.912;2023-11-21T11:50:06;-0.90;99.90
40153;DHT22;26371;56.992;23.912;2023-11-21T11:52:43;-0.80;99.90
40153;DHT22;26371;56.992;23.912;2023-11-21T11:55:13;-0.80;99.90
40153;DHT22;26371;56.992;23.912;2023-11-21T11:57:43;-0.80;99.90
40153;DHT22;26371;56.992;23.912;2023-11-21T12:00:14;-0.80;99.90
40153;DHT22;26371;56.992;23.912;2023-11-21T12:02:50;-0.70;99.90
40153;DHT22;26371;56.992;23.912;2023-11-21T12:05:20;-0.60;99.90
40153;DHT22;26371;56.992;23.912;2023-11-21T12:07:55;-0.50;99.90
40153;DHT22;26371;56.992;23.912;2023-11-21T12:10:27;-0.50;99.90
40153;DHT22;26371;56.992;23.912;2023-11-21T12:12:57;-0.50;99.90
40153;DHT22;26371;56.992;23.912;2023-11-21T12:15:27;-0.40;99.90
40153;DHT22;26371;56.992;23.912;2023-11-21T12:17:58;-0.50;99.90
40153;DHT22;26371;56.992;23.912;2023-11-21T12:20:28;-0.50;99.90
40153;DHT22;26371;56.992;23.912;2023-11-21T12:22:59;-0.60;99.90
40153;DHT22;26371;56.992;23.912;2023-11-21T12:25:29;-0.80;99.90
40153;DHT22;26371;56.992;23.912;2023-11-21T12:28:00;-0.80;99.90
40153;DHT22;26371;56.992;23.912;2023-11-21T12:30:31;-0.90;99.90
40153;DHT22;26371;56.992;23.912;2023-11-21T12:33:02;-0.80;99.90
40153;DHT22;26371;56.992;23.912;2023-11-21T12:35:35;-0.80;99.90
40153;DHT22;26371;56.992;23.912;2023-11-21T12:38:05;-0.80;99.90
40153;DHT22;26371;56.992;23.912;2023-11-21T12:40:36;-0.80;99.90
40153;DHT22;26371;56.992;23.912;2023-11-21T12:43:06;-0.70;99.90
40153;DHT22;26371;56.992;23.912;2023-11-21T12:45:37;-0.80;99.90
40153;DHT22;26371;56.992;23.912;2023-11-21T12:48:07;-0.80;99.90
40153;DHT22;26371;56.992;23.912;2023-11-21T12:50:37;-0.80;99.90
40153;DHT22;26371;56.992;23.912;2023-11-21T12:53:08;-0.80;99.90
40153;DHT22;26371;56.992;23.912;2023-11-21T12:55:40;-0.80;99.90
40153;DHT22;26371;56.992;23.912;2023-11-21T12:58:10;-0.80;99.90
40153;DHT22;26371;56.992;23.912;2023-11-21T13:00:42;-0.90;99.90
40153;DHT22;26371;56.992;23.912;2023-11-21T13:03:12;-0.90;99.90
40153;DHT22;26371;56.992;23.912;2023-11-21T13:05:46;-0.90;99.90
40153;DHT22;26371;56.992;23.912;2023-11-21T13:08:21;-0.90;99.90
40153;DHT22;26371;56.992;23.912;2023-11-21T13:10:53;-0.90;99.90
40153;DHT22;26371;56.992;23.912;2023-11-21T13:13:27;-1.00;99.90
40153;DHT22;26371;56.992;23.912;2023-11-21T13:15:59;-0.90;99.90
40153;DHT22;26371;56.992;23.912;2023-11-21T13:18:32;-0.90;99.90
40153;DHT22;26371;56.992;23.912;2023-11-21T13:21:03;-1.00;99.90
40153;DHT22;26371;56.992;23.912;2023-11-21T13:23:39;-1.00;99.90
40153;DHT22;26371;56.992;23.912;2023-11-21T13:26:09;-1.00;99.90
40153;DHT22;26371;56.992;23.912;2023-11-21T13:28:38;-0.90;99.90
40153;DHT22;26371;56.992;23.912;2023-11-21T13:31:10;-0.90;99.90
40153;DHT22;26371;56.992;23.912;2023-11-21T13:33:49;-0.90;99.90
40153;DHT22;26371;56.992;23.912;2023-11-21T13:36:24;-0.90;99.90
40153;DHT22;26371;56.992;23.912;2023-11-21T13:39:02;-0.90;99.90
40153;DHT22;26371;56.992;23.912;2023-11-21T13:41:35;-0.90;99.90
40153;DHT22;26371;56.992;23.912;2023-11-21T13:44:06;-0.90;99.90
40153;DHT22;26371;56.992;23.912;2023-11-21T13:46:44;-0.90;99.90
40153;DHT22;26371;56.992;23.912;2023-11-21T13:49:14;-0.90;99.90
40153;DHT22;26371;56.992;23.912;2023-11-21T13:51:43;-0.90;99.90
40153;DHT22;26371;56.992;23.912;2023-11-21T13:54:17;-0.90;99.90
40153;DHT22;26371;56.992;23.912;2023-11-21T13:56:47;-0.90;99.90
40153;DHT22;26371;56.992;23.912;2023-11-21T13:59:18;-1.00;99.90
40153;DHT22;26371;56.992;23.912;2023-11-21T14:01:51;-1.00;99.90
40153;DHT22;26371;56.992;23.912;2023-11-21T14:04:24;-1.00;99.90
40153;DHT22;26371;56.992;23.912;2023-11-21T14:07:23;-1.00;99.90
40153;DHT22;26371;56.992;23.912;2023-11-21T14:10:02;-1.00;99.90
40153;DHT22;26371;56.992;23.912;2023-11-21T14:12:32;-0.90;99.90
40153;DHT22;26371;56.992;23.912;2023-11-21T14:15:06;-0.90;99.90
40153;DHT22;26371;56.992;23.912;2023-11-21T14:17:37;-0.90;99.90
40153;DHT22;26371;56.992;23.912;2023-11-21T14:20:09;-0.80;99.90
40153;DHT22;26371;56.992;23.912;2023-11-21T14:22:44;-0.80;99.90
40153;DHT22;26371;56.992;23.912;2023-11-21T14:25:16;-0.80;99.90
40153;DHT22;26371;56.992;23.912;2023-11-21T14:27:46;-0.80;99.90
40153;DHT22;26371;56.992;23.912;2023-11-21T14:30:15;-0.80;99.90
40153;DHT22;26371;56.992;23.912;2023-11-21T14:32:46;-0.90;99.90
40153;DHT22;26371;56.992;23.912;2023-11-21T14:35:15;-0.90;99.90
40153;DHT22;26371;56.992;23.912;2023-11-21T14:37:44;-0.80;99.90
40153;DHT22;26371;56.992;23.912;2023-11-21T14:40:15;-0.80;99.90
40153;DHT22;26371;56.992;23.912;2023-11-21T14:42:45;-0.80;99.90
40153;DHT22;26371;56.992;23.912;2023-11-21T14:45:15;-0.80;99.90
40153;DHT22;26371;56.992;23.912;2023-11-21T14:47:47;-0.90;99.90
40153;DHT22;26371;56.992;23.912;2023-11-21T14:50:24;-0.90;99.90
40153;DHT22;26371;56.992;23.912;2023-11-21T14:53:19;-0.90;99.90
40153;DHT22;26371;56.992;23.912;2023-11-21T14:56:10;-1.00;99.90
40153;DHT22;26371;56.992;23.912;2023-11-21T14:58:44;-1.00;99.90
40153;DHT22;26371;56.992;23.912;2023-11-21T15:01:13;-0.90;99.90
40153;DHT22;26371;56.992;23.912;2023-11-21T15:03:40;-1.00;99.90
40153;DHT22;26371;56.992;23.912;2023-11-21T15:06:17;-0.90;99.90
40153;DHT22;26371;56.992;23.912;2023-11-21T15:08:55;-0.90;99.90
40153;DHT22;26371;56.992;23.912;2023-11-21T15:11:42;-0.90;99.90
40153;DHT22;26371;56.992;23.912;2023-11-21T15:14:11;-0.90;99.90
40153;DHT22;26371;56.992;23.912;2023-11-21T15:16:43;-0.90;99.90
40153;DHT22;26371;56.992;23.912;2023-11-21T15:19:18;-0.90;99.90
40153;DHT22;26371;56.992;23.912;2023-11-21T15:21:53;-0.90;99.90
40153;DHT22;26371;56.992;23.912;2023-11-21T15:24:23;-0.90;99.90
40153;DHT22;26371;56.992;23.912;2023-11-21T15:26:53;-0.80;99.90
40153;DHT22;26371;56.992;23.912;2023-11-21T15:29:25;-0.80;99.90
40153;DHT22;26371;56.992;23.912;2023-11-21T15:31:55;-0.90;99.90
40153;DHT22;26371;56.992;23.912;2023-11-21T15:34:27;-0.80;99.90
40153;DHT22;26371;56.992;23.912;2023-11-21T15:37:00;-0.80;99.90